sensor_id;sensor_type;location;lat;lon;timestamp;temperature;humidity
54576;DHT22;40472;53.486;14.542;2023-03-20T00:00:50;8.10;99.90
54576;DHT22;40472;53.486;14.542;2023-03-20T00:03:17;8.00;99.90
54576;DHT22;40472;53.486;14.542;2023-03-20T00:05:43;7.80;99.90
54576;DHT22;40472;53.486;14.542;2023-03-20T00:08:09;7.70;99.90
54576;DHT22;40472;53.486;14.542;2023-03-20T00:10:40;7.60;99.90
54576;DHT22;40472;53.486;14.542;2023-03-20T00:13:17;7.60;99.90
54576;DHT22;40472;53.486;14.542;2023-03-20T00:15:44;7.80;99.90
54576;DHT22;40472;53.486;14.542;2023-03-20T00:18:18;7.80;99.90
54576;DHT22;40472;53.486;14.542;2023-03-20T00:20:50;7.90;99.90
54576;DHT22;40472;53.486;14.542;2023-03-20T00:23:16;7.90;99.90
54576;DHT22;40472;53.486;14.542;2023-03-20T00:25:44;7.90;99.90
54576;DHT22;40472;53.486;14.542;2023-03-20T00:31:38;7.70;99.90
54576;DHT22;40472;53.486;14.542;2023-03-20T00:34:09;7.60;99.90
54576;DHT22;40472;53.486;14.542;2023-03-20T00:36:36;7.70;99.90
54576;DHT22;40472;53.486;14.542;2023-03-20T00:39:02;7.60;99.90
54576;DHT22;40472;53.486;14.542;2023-03-20T00:41:32;7.80;99.90
54576;DHT22;40472;53.486;14.542;2023-03-20T00:47:00;8.00;99.90
54576;DHT22;40472;53.486;14.542;2023-03-20T00:49:29;8.00;99.90
54576;DHT22;40472;53.486;14.542;2023-03-20T00:51:57;8.00;99.90
54576;DHT22;40472;53.486;14.542;2023-03-20T00:54:23;8.10;99.90
54576;DHT22;40472;53.486;14.542;2023-03-20T00:57:19;8.10;99.90
54576;DHT22;40472;53.486;14.542;2023-03-20T01:00:23;8.20;99.90
54576;DHT22;40472;53.486;14.542;2023-03-20T01:02:51;8.10;99.90
54576;DHT22;40472;53.486;14.542;2023-03-20T01:05:19;8.20;99.90
54576;DHT22;40472;53.486;14.542;2023-03-20T01:07:45;8.20;99.90
54576;DHT22;40472;53.486;14.542;2023-03-20T01:10:11;8.10;99.90
54576;DHT22;40472;53.486;14.542;2023-03-20T01:12:39;8.10;99.90
54576;DHT22;40472;53.486;14.542;2023-03-20T01:15:15;8.10;99.90
54576;DHT22;40472;53.486;14.542;2023-03-20T01:17:42;8.10;99.90
54576;DHT22;40472;53.486;14.542;2023-03-20T01:20:16;8.10;99.90
54576;DHT22;40472;53.486;14.542;2023-03-20T01:22:42;8.10;99.90
54576;DHT22;40472;53.486;14.542;2023-03-20T01:25:08;8.20;99.90
54576;DHT22;40472;53.486;14.542;2023-03-20T01:27:34;8.10;99.90
54576;DHT22;40472;53.486;14.542;2023-03-20T01:30:00;8.20;99.90
54576;DHT22;40472;53.486;14.542;2023-03-20T01:32:26;8.20;99.90
54576;DHT22;40472;53.486;14.542;2023-03-20T01:34:51;8.20;99.90
54576;DHT22;40472;53.486;14.542;2023-03-20T01:37:25;8.10;99.90
54576;DHT22;40472;53.486;14.542;2023-03-20T01:39:51;8.10;99.90
54576;DHT22;40472;53.486;14.542;2023-03-20T01:42:17;8.10;99.90
54576;DHT22;40472;53.486;14.542;2023-03-20T01:44:43;8.10;99.90
54576;DHT22;40472;53.486;14.542;2023-03-20T01:47:17;8.10;99.90
54576;DHT22;40472;53.486;14.542;2023-03-20T01:50:15;8.10;99.90
54576;DHT22;40472;53.486;14.542;2023-03-20T01:52:42;8.00;99.90
54576;DHT22;40472;53.486;14.542;2023-03-20T01:55:09;8.00;99.90
54576;DHT22;40472;53.486;14.542;2023-03-20T01:57:35;8.00;99.90
54576;DHT22;40472;53.486;14.542;2023-03-20T02:00:05;7.90;99.90
54576;DHT22;40472;53.486;14.542;2023-03-20T02:02:37;7.90;99.90
54576;DHT22;40472;53.486;14.542;2023-03-20T02:05:09;7.90;99.90
54576;DHT22;40472;53.486;14.542;2023-03-20T02:07:36;7.90;99.90
54576;DHT22;40472;53.486;14.542;2023-03-20T02:10:10;7.90;99.90
54576;DHT22;40472;53.486;14.542;2023-03-20T02:12:38;7.90;99.90
54576;DHT22;40472;53.486;14.542;2023-03-20T02:15:06;7.90;99.90
54576;DHT22;40472;53.486;14.542;2023-03-20T02:17:32;7.90;99.90
54576;DHT22;40472;53.486;14.542;2023-03-20T02:20:30;7.80;99.90
54576;DHT22;40472;53.486;14.542;2023-03-20T02:39:51;7.80;99.90
54576;DHT22;40472;53.486;14.542;2023-03-20T02:45:25;7.90;99.90
54576;DHT22;40472;53.486;14.542;2023-03-20T02:50:36;7.80;99.90
54576;DHT22;40472;53.486;14.542;2023-03-20T02:58:41;7.70;99.90
54576;DHT22;40472;53.486;14.542;2023-03-20T03:04:06;7.70;99.90
54576;DHT22;40472;53.486;14.542;2023-03-20T03:06:34;7.60;99.90
54576;DHT22;40472;53.486;14.542;2023-03-20T03:09:22;7.60;99.90
54576;DHT22;40472;53.486;14.542;2023-03-20T03:11:59;7.60;99.90
54576;DHT22;40472;53.486;14.542;2023-03-20T03:14:36;7.50;99.90
54576;DHT22;40472;53.486;14.542;2023-03-20T03:17:05;7.50;99.90
54576;DHT22;40472;53.486;14.542;2023-03-20T03:19:34;7.50;99.90
54576;DHT22;40472;53.486;14.542;2023-03-20T03:22:01;7.50;99.90
54576;DHT22;40472;53.486;14.542;2023-03-20T03:24:33;7.50;99.90
54576;DHT22;40472;53.486;14.542;2023-03-20T03:27:02;7.50;99.90
54576;DHT22;40472;53.486;14.542;2023-03-20T03:29:38;7.60;99.90
54576;DHT22;40472;53.486;14.542;2023-03-20T03:32:06;7.60;99.90
54576;DHT22;40472;53.486;14.542;2023-03-20T03:34:32;7.60;99.90
54576;DHT22;40472;53.486;14.542;2023-03-20T03:37:17;7.70;99.90
54576;DHT22;40472;53.486;14.542;2023-03-20T03:39:52;7.70;99.90
54576;DHT22;40472;53.486;14.542;2023-03-20T03:42:40;7.80;99.90
54576;DHT22;40472;53.486;14.542;2023-03-20T03:45:15;7.70;99.90
54576;DHT22;40472;53.486;14.542;2023-03-20T03:48:20;7.80;99.90
54576;DHT22;40472;53.486;14.542;2023-03-20T03:50:53;7.80;99.90
54576;DHT22;40472;53.486;14.542;2023-03-20T03:53:27;7.70;99.90
54576;DHT22;40472;53.486;14.542;2023-03-20T03:56:02;7.80;99.90
54576;DHT22;40472;53.486;14.542;2023-03-20T03:58:42;7.80;99.90
54576;DHT22;40472;53.486;14.542;2023-03-20T04:01:10;7.70;99.90
54576;DHT22;40472;53.486;14.542;2023-03-20T04:03:39;7.70;99.90
54576;DHT22;40472;53.486;14.542;2023-03-20T04:06:09;7.70;99.90
54576;DHT22;40472;53.486;14.542;2023-03-20T04:08:38;7.60;99.90
54576;DHT22;40472;53.486;14.542;2023-03-20T04:11:04;7.60;99.90
54576;DHT22;40472;53.486;14.542;2023-03-20T04:13:30;7.50;99.90
54576;DHT22;40472;53.486;14.542;2023-03-20T04:15:55;7.50;99.90
54576;DHT22;40472;53.486;14.542;2023-03-20T04:18:21;7.50;99.90
54576;DHT22;40472;53.486;14.542;2023-03-20T04:20:47;7.40;99.90
54576;DHT22;40472;53.486;14.542;2023-03-20T04:23:14;7.40;99.90
54576;DHT22;40472;53.486;14.542;2023-03-20T04:25:40;7.30;99.90
54576;DHT22;40472;53.486;14.542;2023-03-20T04:28:06;7.30;99.90
54576;DHT22;40472;53.486;14.542;2023-03-20T04:30:32;7.30;99.90
54576;DHT22;40472;53.486;14.542;2023-03-20T04:32:57;7.30;99.90
54576;DHT22;40472;53.486;14.542;2023-03-20T04:35:23;7.20;99.90
54576;DHT22;40472;53.486;14.542;2023-03-20T04:37:49;7.20;99.90
54576;DHT22;40472;53.486;14.542;2023-03-20T04:40:15;7.20;99.90
54576;DHT22;40472;53.486;14.542;2023-03-20T04:42:41;7.20;99.90
54576;DHT22;40472;53.486;14.542;2023-03-20T04:45:07;7.10;99.90
54576;DHT22;40472;53.486;14.542;2023-03-20T04:47:33;7.20;99.90
54576;DHT22;40472;53.486;14.542;2023-03-20T04:49:59;7.20;99.90
54576;DHT22;40472;53.486;14.542;2023-03-20T04:52:25;7.20;99.90
54576;DHT22;40472;53.486;14.542;2023-03-20T04:54:50;7.20;99.90
54576;DHT22;40472;53.486;14.542;2023-03-20T04:57:16;7.20;99.90
54576;DHT22;40472;53.486;14.542;2023-03-20T04:59:42;7.20;99.90
54576;DHT22;40472;53.486;14.542;2023-03-20T05:02:07;7.20;99.90
54576;DHT22;40472;53.486;14.542;2023-03-20T05:04:33;7.20;99.90
54576;DHT22;40472;53.486;14.542;2023-03-20T05:06:59;7.20;99.90
54576;DHT22;40472;53.486;14.542;2023-03-20T05:09:25;7.20;99.90
54576;DHT22;40472;53.486;14.542;2023-03-20T05:11:50;7.20;99.90
54576;DHT22;40472;53.486;14.542;2023-03-20T05:14:16;7.20;99.90
54576;DHT22;40472;53.486;14.542;2023-03-20T05:16:42;7.20;99.90
54576;DHT22;40472;53.486;14.542;2023-03-20T05:19:08;7.20;99.90
54576;DHT22;40472;53.486;14.542;2023-03-20T05:21:34;7.20;99.90
54576;DHT22;40472;53.486;14.542;2023-03-20T05:24:00;7.20;99.90
54576;DHT22;40472;53.486;14.542;2023-03-20T05:26:26;7.20;99.90
54576;DHT22;40472;53.486;14.542;2023-03-20T05:28:52;7.20;99.90
54576;DHT22;40472;53.486;14.542;2023-03-20T05:31:18;7.20;99.90
54576;DHT22;40472;53.486;14.542;2023-03-20T05:33:43;7.20;99.90
54576;DHT22;40472;53.486;14.542;2023-03-20T05:36:12;7.20;99.90
54576;DHT22;40472;53.486;14.542;2023-03-20T05:38:38;7.20;99.90
54576;DHT22;40472;53.486;14.542;2023-03-20T05:41:06;7.20;99.90
54576;DHT22;40472;53.486;14.542;2023-03-20T05:43:32;7.20;99.90
54576;DHT22;40472;53.486;14.542;2023-03-20T05:45:57;7.20;99.90
54576;DHT22;40472;53.486;14.542;2023-03-20T05:48:23;7.20;99.90
54576;DHT22;40472;53.486;14.542;2023-03-20T05:50:49;7.20;99.90
54576;DHT22;40472;53.486;14.542;2023-03-20T05:53:15;7.20;99.90
54576;DHT22;40472;53.486;14.542;2023-03-20T05:55:41;7.20;99.90
54576;DHT22;40472;53.486;14.542;2023-03-20T05:58:09;7.20;99.90
54576;DHT22;40472;53.486;14.542;2023-03-20T06:00:37;7.20;99.90
54576;DHT22;40472;53.486;14.542;2023-03-20T06:03:07;7.20;99.90
54576;DHT22;40472;53.486;14.542;2023-03-20T06:05:33;7.20;99.90
54576;DHT22;40472;53.486;14.542;2023-03-20T06:07:59;7.20;99.90
54576;DHT22;40472;53.486;14.542;2023-03-20T06:10:25;7.00;99.90
54576;DHT22;40472;53.486;14.542;2023-03-20T06:12:52;6.90;99.90
54576;DHT22;40472;53.486;14.542;2023-03-20T06:15:18;6.80;99.90
54576;DHT22;40472;53.486;14.542;2023-03-20T06:17:44;6.60;99.90
54576;DHT22;40472;53.486;14.542;2023-03-20T06:20:10;6.60;99.90
54576;DHT22;40472;53.486;14.542;2023-03-20T06:22:36;6.50;99.90
54576;DHT22;40472;53.486;14.542;2023-03-20T06:25:02;6.50;99.90
54576;DHT22;40472;53.486;14.542;2023-03-20T06:27:28;6.40;99.90
54576;DHT22;40472;53.486;14.542;2023-03-20T06:29:55;6.30;99.90
54576;DHT22;40472;53.486;14.542;2023-03-20T06:32:21;6.20;99.90
54576;DHT22;40472;53.486;14.542;2023-03-20T06:34:47;6.20;99.90
54576;DHT22;40472;53.486;14.542;2023-03-20T06:37:13;6.20;99.90
54576;DHT22;40472;53.486;14.542;2023-03-20T06:39:39;6.10;99.90
54576;DHT22;40472;53.486;14.542;2023-03-20T06:42:04;6.20;99.90
54576;DHT22;40472;53.486;14.542;2023-03-20T06:44:32;6.20;99.90
54576;DHT22;40472;53.486;14.542;2023-03-20T06:47:00;6.20;99.90
54576;DHT22;40472;53.486;14.542;2023-03-20T06:49:26;6.10;99.90
54576;DHT22;40472;53.486;14.542;2023-03-20T06:51:52;6.10;99.90
54576;DHT22;40472;53.486;14.542;2023-03-20T06:54:18;6.20;99.90
54576;DHT22;40472;53.486;14.542;2023-03-20T06:56:44;6.20;99.90
54576;DHT22;40472;53.486;14.542;2023-03-20T06:59:09;6.30;99.90
54576;DHT22;40472;53.486;14.542;2023-03-20T07:01:35;6.40;99.90
54576;DHT22;40472;53.486;14.542;2023-03-20T07:04:01;6.40;99.90
54576;DHT22;40472;53.486;14.542;2023-03-20T07:06:27;6.40;99.90
54576;DHT22;40472;53.486;14.542;2023-03-20T07:08:52;6.50;99.90
54576;DHT22;40472;53.486;14.542;2023-03-20T07:11:18;6.50;99.90
54576;DHT22;40472;53.486;14.542;2023-03-20T07:13:44;6.60;99.90
54576;DHT22;40472;53.486;14.542;2023-03-20T07:16:10;6.60;99.90
54576;DHT22;40472;53.486;14.542;2023-03-20T07:18:36;6.70;99.90
54576;DHT22;40472;53.486;14.542;2023-03-20T07:21:03;6.70;99.90
54576;DHT22;40472;53.486;14.542;2023-03-20T07:23:30;6.80;99.90
54576;DHT22;40472;53.486;14.542;2023-03-20T07:25:56;6.90;99.90
54576;DHT22;40472;53.486;14.542;2023-03-20T07:28:22;6.90;99.90
54576;DHT22;40472;53.486;14.542;2023-03-20T07:30:48;6.90;99.90
54576;DHT22;40472;53.486;14.542;2023-03-20T07:33:14;7.00;99.90
54576;DHT22;40472;53.486;14.542;2023-03-20T07:35:40;6.90;99.90
54576;DHT22;40472;53.486;14.542;2023-03-20T07:38:06;7.00;99.90
54576;DHT22;40472;53.486;14.542;2023-03-20T07:40:32;7.00;99.90
54576;DHT22;40472;53.486;14.542;2023-03-20T07:42:58;7.00;99.90
54576;DHT22;40472;53.486;14.542;2023-03-20T07:45:23;7.00;99.90
54576;DHT22;40472;53.486;14.542;2023-03-20T07:47:49;7.00;99.90
54576;DHT22;40472;53.486;14.542;2023-03-20T07:50:15;7.10;99.90
54576;DHT22;40472;53.486;14.542;2023-03-20T07:52:48;7.00;99.90
54576;DHT22;40472;53.486;14.542;2023-03-20T07:55:15;7.10;99.90
54576;DHT22;40472;53.486;14.542;2023-03-20T07:57:41;7.10;99.90
54576;DHT22;40472;53.486;14.542;2023-03-20T08:00:07;7.20;99.90
54576;DHT22;40472;53.486;14.542;2023-03-20T08:02:33;7.10;99.90
54576;DHT22;40472;53.486;14.542;2023-03-20T08:04:59;7.10;99.90
54576;DHT22;40472;53.486;14.542;2023-03-20T08:07:25;7.10;99.90
54576;DHT22;40472;53.486;14.542;2023-03-20T08:09:54;7.10;99.90
54576;DHT22;40472;53.486;14.542;2023-03-20T08:12:20;7.10;99.90
54576;DHT22;40472;53.486;14.542;2023-03-20T08:14:46;7.00;99.90
54576;DHT22;40472;53.486;14.542;2023-03-20T08:17:12;7.20;99.90
54576;DHT22;40472;53.486;14.542;2023-03-20T08:19:38;7.30;99.90
54576;DHT22;40472;53.486;14.542;2023-03-20T08:22:03;7.20;99.90
54576;DHT22;40472;53.486;14.542;2023-03-20T08:24:29;7.10;99.90
54576;DHT22;40472;53.486;14.542;2023-03-20T08:26:55;7.20;99.90
54576;DHT22;40472;53.486;14.542;2023-03-20T08:29:21;7.20;99.90
54576;DHT22;40472;53.486;14.542;2023-03-20T08:31:47;7.20;99.90
54576;DHT22;40472;53.486;14.542;2023-03-20T08:34:13;7.30;99.90
54576;DHT22;40472;53.486;14.542;2023-03-20T08:36:38;7.30;99.90
54576;DHT22;40472;53.486;14.542;2023-03-20T08:39:05;7.30;99.90
54576;DHT22;40472;53.486;14.542;2023-03-20T08:41:32;7.30;99.90
54576;DHT22;40472;53.486;14.542;2023-03-20T08:43:58;7.40;99.90
54576;DHT22;40472;53.486;14.542;2023-03-20T08:46:24;7.50;99.90
54576;DHT22;40472;53.486;14.542;2023-03-20T08:48:50;7.60;99.90
54576;DHT22;40472;53.486;14.542;2023-03-20T08:51:16;7.70;99.90
54576;DHT22;40472;53.486;14.542;2023-03-20T08:53:42;7.70;99.90
54576;DHT22;40472;53.486;14.542;2023-03-20T08:56:08;7.80;99.90
54576;DHT22;40472;53.486;14.542;2023-03-20T08:58:34;7.80;99.90
54576;DHT22;40472;53.486;14.542;2023-03-20T09:01:04;8.00;99.90
54576;DHT22;40472;53.486;14.542;2023-03-20T09:03:30;8.20;99.90
54576;DHT22;40472;53.486;14.542;2023-03-20T09:05:56;8.20;99.90
54576;DHT22;40472;53.486;14.542;2023-03-20T09:08:22;8.40;99.90
54576;DHT22;40472;53.486;14.542;2023-03-20T09:10:51;8.50;99.90
54576;DHT22;40472;53.486;14.542;2023-03-20T09:13:17;8.60;99.90
54576;DHT22;40472;53.486;14.542;2023-03-20T09:15:43;8.80;99.90
54576;DHT22;40472;53.486;14.542;2023-03-20T09:18:08;8.80;99.90
54576;DHT22;40472;53.486;14.542;2023-03-20T09:20:34;8.80;99.90
54576;DHT22;40472;53.486;14.542;2023-03-20T09:23:00;8.70;99.90
54576;DHT22;40472;53.486;14.542;2023-03-20T09:25:26;8.60;99.90
54576;DHT22;40472;53.486;14.542;2023-03-20T09:27:52;8.70;99.90
54576;DHT22;40472;53.486;14.542;2023-03-20T09:30:38;8.80;99.90
54576;DHT22;40472;53.486;14.542;2023-03-20T09:33:04;8.90;99.90
54576;DHT22;40472;53.486;14.542;2023-03-20T09:35:30;8.90;99.90
54576;DHT22;40472;53.486;14.542;2023-03-20T09:37:56;8.70;99.90
54576;DHT22;40472;53.486;14.542;2023-03-20T09:40:57;8.70;99.90
54576;DHT22;40472;53.486;14.542;2023-03-20T09:44:01;8.80;99.90
54576;DHT22;40472;53.486;14.542;2023-03-20T09:49:10;8.90;99.90
54576;DHT22;40472;53.486;14.542;2023-03-20T09:51:42;8.90;99.90
54576;DHT22;40472;53.486;14.542;2023-03-20T09:54:26;9.00;99.90
54576;DHT22;40472;53.486;14.542;2023-03-20T09:56:54;9.10;99.90
54576;DHT22;40472;53.486;14.542;2023-03-20T09:59:26;9.10;99.90
54576;DHT22;40472;53.486;14.542;2023-03-20T10:02:05;9.20;99.90
54576;DHT22;40472;53.486;14.542;2023-03-20T10:04:32;9.30;99.90
54576;DHT22;40472;53.486;14.542;2023-03-20T10:07:02;9.30;99.90
54576;DHT22;40472;53.486;14.542;2023-03-20T10:09:29;9.30;99.90
54576;DHT22;40472;53.486;14.542;2023-03-20T10:12:31;9.20;99.90
54576;DHT22;40472;53.486;14.542;2023-03-20T10:15:24;9.20;99.90
54576;DHT22;40472;53.486;14.542;2023-03-20T10:20:47;9.40;99.90
54576;DHT22;40472;53.486;14.542;2023-03-20T10:23:32;9.20;99.90
54576;DHT22;40472;53.486;14.542;2023-03-20T10:26:07;9.10;99.90
54576;DHT22;40472;53.486;14.542;2023-03-20T10:28:51;9.20;99.90
54576;DHT22;40472;53.486;14.542;2023-03-20T10:31:42;9.20;99.90
54576;DHT22;40472;53.486;14.542;2023-03-20T10:37:40;9.20;99.90
54576;DHT22;40472;53.486;14.542;2023-03-20T10:40:31;9.10;99.90
54576;DHT22;40472;53.486;14.542;2023-03-20T10:43:15;9.00;99.90
54576;DHT22;40472;53.486;14.542;2023-03-20T10:50:55;9.00;99.90
54576;DHT22;40472;53.486;14.542;2023-03-20T10:53:40;9.10;99.90
54576;DHT22;40472;53.486;14.542;2023-03-20T10:56:11;9.00;99.90
54576;DHT22;40472;53.486;14.542;2023-03-20T10:58:40;9.00;99.90
54576;DHT22;40472;53.486;14.542;2023-03-20T11:01:07;9.10;99.90
54576;DHT22;40472;53.486;14.542;2023-03-20T11:03:33;9.10;99.90
54576;DHT22;40472;53.486;14.542;2023-03-20T11:06:21;9.10;99.90
54576;DHT22;40472;53.486;14.542;2023-03-20T11:08:52;9.20;99.90
54576;DHT22;40472;53.486;14.542;2023-03-20T11:11:29;9.40;99.90
54576;DHT22;40472;53.486;14.542;2023-03-20T11:14:13;9.40;99.90
54576;DHT22;40472;53.486;14.542;2023-03-20T11:16:40;9.40;99.90
54576;DHT22;40472;53.486;14.542;2023-03-20T11:19:09;9.40;99.90
54576;DHT22;40472;53.486;14.542;2023-03-20T11:21:53;9.40;99.90
54576;DHT22;40472;53.486;14.542;2023-03-20T11:24:28;9.60;99.90
54576;DHT22;40472;53.486;14.542;2023-03-20T11:27:05;9.70;99.90
54576;DHT22;40472;53.486;14.542;2023-03-20T11:29:32;9.80;99.90
54576;DHT22;40472;53.486;14.542;2023-03-20T11:32:33;9.70;99.90
54576;DHT22;40472;53.486;14.542;2023-03-20T11:37:46;9.60;99.90
54576;DHT22;40472;53.486;14.542;2023-03-20T11:40:17;9.70;99.90
54576;DHT22;40472;53.486;14.542;2023-03-20T11:43:23;9.70;99.90
54576;DHT22;40472;53.486;14.542;2023-03-20T11:45:59;9.60;99.90
54576;DHT22;40472;53.486;14.542;2023-03-20T11:48:36;9.60;99.90
54576;DHT22;40472;53.486;14.542;2023-03-20T11:51:13;9.60;99.90
54576;DHT22;40472;53.486;14.542;2023-03-20T11:53:53;9.60;99.90
54576;DHT22;40472;53.486;14.542;2023-03-20T11:56:24;9.70;99.90
54576;DHT22;40472;53.486;14.542;2023-03-20T12:01:22;9.70;99.90
54576;DHT22;40472;53.486;14.542;2023-03-20T12:06:43;9.50;99.90
54576;DHT22;40472;53.486;14.542;2023-03-20T12:12:26;9.60;99.90
54576;DHT22;40472;53.486;14.542;2023-03-20T12:18:21;9.40;99.90
54576;DHT22;40472;53.486;14.542;2023-03-20T12:23:53;9.20;99.90
54576;DHT22;40472;53.486;14.542;2023-03-20T12:26:36;9.20;99.90
54576;DHT22;40472;53.486;14.542;2023-03-20T12:31:47;9.20;99.90
54576;DHT22;40472;53.486;14.542;2023-03-20T12:34:51;9.20;99.90
54576;DHT22;40472;53.486;14.542;2023-03-20T12:37:12;9.20;99.90
54576;DHT22;40472;53.486;14.542;2023-03-20T12:39:49;9.20;99.90
54576;DHT22;40472;53.486;14.542;2023-03-20T12:42:46;9.10;99.90
54576;DHT22;40472;53.486;14.542;2023-03-20T12:45:32;8.90;99.90
54576;DHT22;40472;53.486;14.542;2023-03-20T12:48:16;8.80;99.90
54576;DHT22;40472;53.486;14.542;2023-03-20T12:50:53;8.70;99.90
54576;DHT22;40472;53.486;14.542;2023-03-20T12:58:48;8.40;99.90
54576;DHT22;40472;53.486;14.542;2023-03-20T13:01:30;8.30;99.90
54576;DHT22;40472;53.486;14.542;2023-03-20T13:06:55;8.20;99.90
54576;DHT22;40472;53.486;14.542;2023-03-20T13:21:23;8.00;99.90
54576;DHT22;40472;53.486;14.542;2023-03-20T13:29:07;7.90;99.90
54576;DHT22;40472;53.486;14.542;2023-03-20T13:39:41;7.90;99.90
54576;DHT22;40472;53.486;14.542;2023-03-20T13:42:18;8.00;99.90
54576;DHT22;40472;53.486;14.542;2023-03-20T13:44:46;8.10;99.90
54576;DHT22;40472;53.486;14.542;2023-03-20T13:47:18;8.10;99.90
54576;DHT22;40472;53.486;14.542;2023-03-20T13:52:24;8.10;99.90
54576;DHT22;40472;53.486;14.542;2023-03-20T14:00:37;8.40;99.90
54576;DHT22;40472;53.486;14.542;2023-03-20T14:05:43;8.40;99.90
54576;DHT22;40472;53.486;14.542;2023-03-20T14:13:58;8.20;99.90
54576;DHT22;40472;53.486;14.542;2023-03-20T14:16:27;8.30;99.90
54576;DHT22;40472;53.486;14.542;2023-03-20T14:21:37;8.40;99.90
54576;DHT22;40472;53.486;14.542;2023-03-20T14:24:09;8.50;99.90
54576;DHT22;40472;53.486;14.542;2023-03-20T14:26:38;8.50;99.90
54576;DHT22;40472;53.486;14.542;2023-03-20T14:31:37;8.80;99.90
54576;DHT22;40472;53.486;14.542;2023-03-20T14:50:32;9.10;99.90
54576;DHT22;40472;53.486;14.542;2023-03-20T14:53:18;9.10;99.90
54576;DHT22;40472;53.486;14.542;2023-03-20T15:01:07;9.00;99.90
54576;DHT22;40472;53.486;14.542;2023-03-20T15:03:36;8.90;99.90
54576;DHT22;40472;53.486;14.542;2023-03-20T15:06:05;8.80;99.90
54576;DHT22;40472;53.486;14.542;2023-03-20T15:08:34;8.80;99.90
54576;DHT22;40472;53.486;14.542;2023-03-20T15:11:06;8.80;99.90
54576;DHT22;40472;53.486;14.542;2023-03-20T15:13:34;8.70;99.90
54576;DHT22;40472;53.486;14.542;2023-03-20T15:16:13;8.60;99.90
54576;DHT22;40472;53.486;14.542;2023-03-20T15:18:52;8.60;99.90
54576;DHT22;40472;53.486;14.542;2023-03-20T15:23:57;8.50;99.90
54576;DHT22;40472;53.486;14.542;2023-03-20T15:26:23;8.40;99.90
54576;DHT22;40472;53.486;14.542;2023-03-20T15:28:56;8.40;99.90
54576;DHT22;40472;53.486;14.542;2023-03-20T15:31:29;8.40;99.90
54576;DHT22;40472;53.486;14.542;2023-03-20T15:33:58;8.30;99.90
54576;DHT22;40472;53.486;14.542;2023-03-20T15:36:27;8.30;99.90
54576;DHT22;40472;53.486;14.542;2023-03-20T15:39:04;8.30;99.90
54576;DHT22;40472;53.486;14.542;2023-03-20T15:41:32;8.30;99.90
54576;DHT22;40472;53.486;14.542;2023-03-20T15:44:20;8.30;99.90
54576;DHT22;40472;53.486;14.542;2023-03-20T15:49:23;8.40;99.90
54576;DHT22;40472;53.486;14.542;2023-03-20T15:51:50;8.50;99.90
54576;DHT22;40472;53.486;14.542;2023-03-20T15:54:17;8.60;99.90
54576;DHT22;40472;53.486;14.542;2023-03-20T15:56:46;8.60;99.90
54576;DHT22;40472;53.486;14.542;2023-03-20T15:59:14;8.50;99.90
54576;DHT22;40472;53.486;14.542;2023-03-20T16:01:43;8.50;99.90
54576;DHT22;40472;53.486;14.542;2023-03-20T16:04:14;8.50;99.90
54576;DHT22;40472;53.486;14.542;2023-03-20T16:06:55;8.50;99.90
54576;DHT22;40472;53.486;14.542;2023-03-20T16:09:22;8.50;99.90
54576;DHT22;40472;53.486;14.542;2023-03-20T16:12:00;8.40;99.90
54576;DHT22;40472;53.486;14.542;2023-03-20T16:14:30;8.50;99.90
54576;DHT22;40472;53.486;14.542;2023-03-20T16:16:58;8.40;99.90
54576;DHT22;40472;53.486;14.542;2023-03-20T16:19:25;8.40;99.90
54576;DHT22;40472;53.486;14.542;2023-03-20T16:22:01;8.40;99.90
54576;DHT22;40472;53.486;14.542;2023-03-20T16:24:34;8.40;99.90
54576;DHT22;40472;53.486;14.542;2023-03-20T16:27:06;8.40;99.90
54576;DHT22;40472;53.486;14.542;2023-03-20T16:29:33;8.40;99.90
54576;DHT22;40472;53.486;14.542;2023-03-20T16:32:54;8.30;99.90
54576;DHT22;40472;53.486;14.542;2023-03-20T16:34:56;8.30;99.90
54576;DHT22;40472;53.486;14.542;2023-03-20T16:37:41;8.20;99.90
54576;DHT22;40472;53.486;14.542;2023-03-20T16:40:21;8.20;99.90
54576;DHT22;40472;53.486;14.542;2023-03-20T16:42:53;8.20;99.90
54576;DHT22;40472;53.486;14.542;2023-03-20T16:45:28;8.20;99.90
54576;DHT22;40472;53.486;14.542;2023-03-20T16:48:41;8.20;99.90
54576;DHT22;40472;53.486;14.542;2023-03-20T16:51:15;8.10;99.90
54576;DHT22;40472;53.486;14.542;2023-03-20T16:53:45;8.10;99.90
54576;DHT22;40472;53.486;14.542;2023-03-20T16:58:52;8.10;99.90
54576;DHT22;40472;53.486;14.542;2023-03-20T17:01:20;8.10;99.90
54576;DHT22;40472;53.486;14.542;2023-03-20T17:04:11;8.10;99.90
54576;DHT22;40472;53.486;14.542;2023-03-20T17:06:43;8.00;99.90
54576;DHT22;40472;53.486;14.542;2023-03-20T17:11:48;8.10;99.90
54576;DHT22;40472;53.486;14.542;2023-03-20T17:14:14;8.10;99.90
54576;DHT22;40472;53.486;14.542;2023-03-20T17:16:40;8.10;99.90
54576;DHT22;40472;53.486;14.542;2023-03-20T17:19:16;8.10;99.90
54576;DHT22;40472;53.486;14.542;2023-03-20T17:21:44;8.10;99.90
54576;DHT22;40472;53.486;14.542;2023-03-20T17:24:11;8.00;99.90
54576;DHT22;40472;53.486;14.542;2023-03-20T17:26:38;7.90;99.90
54576;DHT22;40472;53.486;14.542;2023-03-20T17:29:08;8.00;99.90
54576;DHT22;40472;53.486;14.542;2023-03-20T17:31:34;8.00;99.90
54576;DHT22;40472;53.486;14.542;2023-03-20T17:34:00;8.00;99.90
54576;DHT22;40472;53.486;14.542;2023-03-20T17:36:31;7.90;99.90
54576;DHT22;40472;53.486;14.542;2023-03-20T17:38:58;7.90;99.90
54576;DHT22;40472;53.486;14.542;2023-03-20T17:41:25;8.00;99.90
54576;DHT22;40472;53.486;14.542;2023-03-20T17:43:52;8.00;99.90
54576;DHT22;40472;53.486;14.542;2023-03-20T17:46:26;8.00;99.90
54576;DHT22;40472;53.486;14.542;2023-03-20T17:49:09;7.90;99.90
54576;DHT22;40472;53.486;14.542;2023-03-20T17:51:40;7.90;99.90
54576;DHT22;40472;53.486;14.542;2023-03-20T17:54:10;7.80;99.90
54576;DHT22;40472;53.486;14.542;2023-03-20T17:56:36;7.80;99.90
54576;DHT22;40472;53.486;14.542;2023-03-20T17:59:04;7.80;99.90
54576;DHT22;40472;53.486;14.542;2023-03-20T18:01:31;7.80;99.90
54576;DHT22;40472;53.486;14.542;2023-03-20T18:03:58;7.80;99.90
54576;DHT22;40472;53.486;14.542;2023-03-20T18:06:32;7.70;99.90
54576;DHT22;40472;53.486;14.542;2023-03-20T18:08:59;7.70;99.90
54576;DHT22;40472;53.486;14.542;2023-03-20T18:11:26;7.60;99.90
54576;DHT22;40472;53.486;14.542;2023-03-20T18:13:53;7.60;99.90
54576;DHT22;40472;53.486;14.542;2023-03-20T18:16:26;7.60;99.90
54576;DHT22;40472;53.486;14.542;2023-03-20T18:18:52;7.60;99.90
54576;DHT22;40472;53.486;14.542;2023-03-20T18:21:18;7.50;99.90
54576;DHT22;40472;53.486;14.542;2023-03-20T18:23:44;7.50;99.90
54576;DHT22;40472;53.486;14.542;2023-03-20T18:26:20;7.40;99.90
54576;DHT22;40472;53.486;14.542;2023-03-20T18:28:49;7.40;99.90
54576;DHT22;40472;53.486;14.542;2023-03-20T18:31:15;7.40;99.90